Earlton (Timiskaming Regional) Airport

CYXR | YXR

Earlton , Ontario , Canada

Sunday, January 19th, 2020 | 13:09

Weather

CYXR 191800Z AUTO 33015KT 9SM -SN CLR M12/M18 A3003 RMK SLP194

Charts

No Charts Available

Gates

No Gates Available

Runways

2 Available

Events

No events for this airport


New event